Time;durP1;ratioP1;P1;durP2;ratioP2;P2;SDS_P1;SDS_P2;PMS_P1;PMS_P2;Temp;Humidity;BMP_temperature;BMP_pressure;BME280_temperature;BME280_humidity;BME280_pressure;Samples;Min_cycle;Max_cycle;Signal;HPM_P1;HPM_P2
2022/02/09 00:00:39;;;;;;;4.88;1.90;;;;;;;3.82;47.94;100407.16;5111003;28;20387;-48
2022/02/09 00:03:11;;;;;;;3.15;1.80;;;;;;;4.00;47.89;100404.59;5111187;28;20071;-49
2022/02/09 00:08:08;;;;;;;4.65;2.00;;;;;;;4.01;47.61;100416.78;5111336;28;20019;-49
2022/02/09 00:10:35;;;;;;;4.88;2.10;;;;;;;4.18;47.35;100416.03;5111415;28;20441;-50
2022/02/09 00:18:47;;;;;;;3.67;2.35;;;;;;;3.30;49.75;100434.69;5102181;28;20405;-47
2022/02/09 00:29:57;;;;;;;4.95;2.00;;;;;;;3.82;48.24;100436.94;5111507;28;20568;-49
2022/02/09 00:37:41;;;;;;;4.45;1.90;;;;;;;3.71;48.14;100434.47;5111592;28;20459;-52
2022/02/09 00:59:08;;;;;;;3.10;1.90;;;;;;;3.87;47.61;100426.81;5115343;28;20108;-48
2022/02/09 01:40:01;;;;;;;10.07;2.20;;;;;;;3.79;47.64;100416.19;5114656;28;20060;-52
2022/02/09 01:55:43;;;;;;;7.03;1.70;;;;;;;3.62;47.97;100401.13;5114329;28;20046;-52
2022/02/09 01:58:09;;;;;;;4.60;1.88;;;;;;;3.66;48.32;100395.44;5112752;28;20035;-49
2022/02/09 02:00:34;;;;;;;3.90;1.90;;;;;;;3.73;48.51;100398.31;5113399;28;20032;-50
2022/02/09 02:03:00;;;;;;;4.13;1.98;;;;;;;3.83;48.34;100393.03;5114628;28;20031;-50
2022/02/09 02:05:26;;;;;;;3.63;2.17;;;;;;;3.79;48.40;100381.09;5114400;28;20035;-49
2022/02/09 02:07:55;;;;;;;4.07;2.28;;;;;;;3.80;48.33;100388.88;5114166;28;20089;-48
2022/02/09 02:11:25;;;;;;;4.55;1.90;;;;;;;3.60;48.98;100384.63;5113018;28;20030;-50
2022/02/09 02:13:54;;;;;;;2.75;1.88;;;;;;;3.61;48.67;100381.84;5104857;28;20150;-52
2022/02/09 02:18:59;;;;;;;3.05;1.80;;;;;;;3.92;47.80;100379.81;5114115;28;20047;-47
2022/02/09 02:21:47;;;;;;;4.15;1.92;;;;;;;3.71;47.71;100382.69;5113503;28;20467;-36
2022/02/09 03:14:13;;;;;;;2.70;1.70;;;;;;;3.94;46.99;100371.78;5112964;28;20027;-38
2022/02/09 03:16:44;;;;;;;2.67;1.90;;;;;;;3.87;47.15;100387.31;5112834;28;20050;-38
2022/02/09 03:24:18;;;;;;;3.25;1.75;;;;;;;4.04;46.57;100387.53;5112410;28;20099;-38
2022/02/09 03:43:16;;;;;;;3.75;1.73;;;;;;;3.96;46.89;100408.50;5112538;28;20460;-37
2022/02/09 03:49:16;;;;;;;4.13;1.95;;;;;;;4.02;47.06;100406.13;5112497;28;20093;-37
2022/02/09 03:51:34;;;;;;;2.63;1.70;;;;;;;3.92;47.12;100411.44;5106205;28;20027;-37
2022/02/09 03:54:54;;;;;;;4.22;2.03;;;;;;;3.79;47.77;100418.81;5112447;28;20542;-38
2022/02/09 03:56:58;;;;;;;5.30;2.00;;;;;;;3.82;47.64;100422.97;5106891;28;20103;-40
2022/02/09 03:59:24;;;;;;;5.90;2.40;;;;;;;3.97;47.96;100415.44;5112459;28;20031;-41
2022/02/09 04:01:50;;;;;;;7.38;2.58;;;;;;;4.02;47.63;100421.09;5112336;28;20020;-38
2022/02/09 04:04:16;;;;;;;3.63;2.00;;;;;;;3.79;48.24;100399.53;5112157;28;20080;-38
2022/02/09 04:06:41;;;;;;;8.10;2.13;;;;;;;3.94;48.06;100410.44;5111200;28;20023;-38
2022/02/09 04:09:14;;;;;;;8.13;2.28;;;;;;;3.87;48.65;100416.28;5109968;28;20023;-37
2022/02/09 04:11:52;;;;;;;4.18;2.15;;;;;;;3.96;48.10;100411.97;5112243;28;20019;-39
2022/02/09 04:14:23;;;;;;;4.90;2.20;;;;;;;3.88;47.61;100412.69;5111825;28;20028;-37
2022/02/09 04:38:20;;;;;;;4.90;1.90;;;;;;;4.16;46.24;100383.72;5111552;28;20035;-48
2022/02/09 04:46:20;;;;;;;7.07;2.85;;;;;;;3.92;46.28;100394.78;5111142;28;20055;-47
2022/02/09 04:51:57;;;;;;;5.47;2.17;;;;;;;4.20;45.54;100393.00;5110928;28;19930;-51
2022/02/09 04:54:44;;;;;;;6.38;1.80;;;;;;;4.29;44.91;100378.94;5109706;28;20042;-49
2022/02/09 05:18:52;;;;;;;6.43;1.90;;;;;;;4.88;42.02;100381.22;5110605;28;20043;-48
2022/02/09 05:21:48;;;;;;;6.60;2.55;;;;;;;4.98;42.24;100381.94;5110467;28;20023;-51
2022/02/09 05:26:48;;;;;;;3.72;2.20;;;;;;;4.83;42.59;100375.56;5110206;28;20463;-49
2022/02/09 05:29:14;;;;;;;7.07;2.20;;;;;;;4.95;42.98;100379.63;5099708;28;20101;-48
2022/02/09 05:31:39;;;;;;;6.97;2.47;;;;;;;5.01;43.00;100379.03;5089762;28;20028;-52
2022/02/09 05:34:06;;;;;;;6.55;2.42;;;;;;;6.03;46.16;100364.34;5106032;28;20110;-49
2022/02/09 05:36:32;;;;;;;5.22;2.55;;;;;;;5.70;42.92;100376.53;5112261;28;20054;-49
2022/02/09 05:38:57;;;;;;;5.78;2.33;;;;;;;6.13;49.58;100373.97;5113163;28;20023;-51
2022/02/09 05:41:23;;;;;;;5.15;2.33;;;;;;;6.41;42.97;100361.34;5113828;28;20023;-50
2022/02/09 05:43:49;;;;;;;11.68;5.20;;;;;;;5.61;43.72;100373.00;5113409;27;20032;-52
2022/02/09 05:51:49;;;;;;;7.50;2.50;;;;;;;6.21;43.56;100380.13;5112551;28;20030;-37
2022/02/09 05:57:11;;;;;;;3.42;2.05;;;;;;;6.25;43.54;100384.09;5112797;28;20024;-38
2022/02/09 05:59:34;;;;;;;8.02;2.60;;;;;;;6.02;44.75;100393.59;5113290;28;20035;-38
2022/02/09 06:01:59;;;;;;;6.05;2.70;;;;;;;6.24;44.29;100390.38;5111976;28;20031;-39
2022/02/09 06:04:26;;;;;;;6.07;2.65;;;;;;;6.44;43.80;100398.06;5113155;28;20034;-38
2022/02/09 06:06:52;;;;;;;21.65;8.98;;;;;;;7.11;43.17;100402.47;5113498;28;20015;-37
2022/02/09 06:09:17;;;;;;;7.05;2.70;;;;;;;7.04;43.41;100402.28;5114055;28;20051;-38
2022/02/09 06:11:51;;;;;;;7.07;2.70;;;;;;;6.58;44.28;100408.00;5114007;28;20096;-37
2022/02/09 06:22:02;;;;;;;8.20;2.75;;;;;;;8.35;41.38;100417.97;5113647;28;20411;-38
2022/02/09 06:24:28;;;;;;;6.85;2.78;;;;;;;8.07;41.73;100432.66;5113528;27;20031;-38
2022/02/09 06:26:53;;;;;;;6.35;2.85;;;;;;;8.01;42.11;100427.06;5113382;28;20090;-37
2022/02/09 06:29:19;;;;;;;8.45;3.10;;;;;;;7.75;42.30;100429.06;5113326;28;20040;-36
2022/02/09 06:31:46;;;;;;;4.95;2.80;;;;;;;7.21;43.37;100430.41;5113144;28;20036;-37
2022/02/09 06:34:13;;;;;;;9.38;3.10;;;;;;;7.91;42.33;100426.38;5113177;28;20028;-38
2022/02/09 06:36:42;;;;;;;4.32;2.70;;;;;;;8.64;40.83;100410.41;5113171;28;20032;-38
2022/02/09 06:39:08;;;;;;;4.18;2.25;;;;;;;8.12;40.83;100415.22;5113148;28;20019;-39
2022/02/09 06:41:34;;;;;;;6.90;2.60;;;;;;;7.81;42.33;100429.22;5113234;28;20636;-37
2022/02/09 06:44:00;;;;;;;3.35;2.00;;;;;;;7.64;42.12;100425.78;5112828;27;20102;-38
2022/02/09 06:46:26;;;;;;;6.65;2.60;;;;;;;7.31;43.05;100410.91;5113033;28;20110;-37
2022/02/09 06:48:52;;;;;;;3.53;2.33;;;;;;;8.14;42.45;100407.94;5113288;28;20029;-38
2022/02/09 06:51:20;;;;;;;6.70;2.58;;;;;;;8.82;40.79;100399.53;5112969;28;20028;-38
2022/02/09 06:54:01;;;;;;;5.07;2.30;;;;;;;8.80;41.71;100410.31;5112786;28;20035;-38
2022/02/09 06:56:42;;;;;;;4.30;2.10;;;;;;;8.65;43.76;100420.03;5112484;28;20030;-38
2022/02/09 07:01:36;;;;;;;6.60;2.30;;;;;;;8.75;43.33;100412.66;5112673;28;20106;-38
2022/02/09 07:04:01;;;;;;;3.45;1.90;;;;;;;9.14;42.33;100430.34;5112032;28;20034;-38
2022/02/09 07:06:27;;;;;;;5.05;2.10;;;;;;;8.61;43.16;100415.06;5112343;28;20020;-37
2022/02/09 07:08:52;;;;;;;6.90;2.20;;;;;;;8.14;44.25;100421.19;5112640;28;20016;-38
2022/02/09 07:11:18;;;;;;;4.05;2.05;;;;;;;7.73;45.55;100412.50;5112521;28;20028;-38
2022/02/09 07:13:43;;;;;;;5.13;2.20;;;;;;;7.71;45.52;100419.81;5112864;28;20027;-38
2022/02/09 07:16:09;;;;;;;6.35;2.65;;;;;;;8.06;44.94;100415.09;5112565;28;20033;-38
2022/02/09 07:18:36;;;;;;;4.22;2.60;;;;;;;8.42;43.94;100418.13;5112341;28;20023;-40
2022/02/09 07:21:07;;;;;;;6.57;2.28;;;;;;;7.86;44.76;100418.13;5112358;28;20043;-38
2022/02/09 07:23:44;;;;;;;6.53;2.30;;;;;;;7.57;46.31;100427.44;5112125;27;20034;-38
2022/02/09 07:26:13;;;;;;;5.00;2.45;;;;;;;7.33;46.56;100432.75;5112616;28;20026;-38
2022/02/09 07:28:39;;;;;;;6.45;2.60;;;;;;;7.47;46.88;100442.69;5111768;28;20493;-38
2022/02/09 07:31:07;;;;;;;5.78;2.63;;;;;;;7.44;46.48;100432.41;5112150;28;20126;-39
2022/02/09 07:33:36;;;;;;;7.68;2.67;;;;;;;7.94;45.90;100434.00;5111870;28;20102;-38
2022/02/09 07:36:01;;;;;;;7.80;2.42;;;;;;;7.67;46.25;100437.84;5112341;28;20027;-37
2022/02/09 07:38:27;;;;;;;3.75;2.35;;;;;;;7.60;46.72;100431.59;5112119;28;20035;-38
2022/02/09 07:40:57;;;;;;;7.22;3.13;;;;;;;7.78;46.73;100439.34;5112348;27;20031;-38
2022/02/09 07:43:28;;;;;;;9.10;2.85;;;;;;;7.71;47.49;100441.84;5111732;28;20030;-38
2022/02/09 07:48:38;;;;;;;5.30;2.80;;;;;;;8.31;46.49;100442.34;5111520;28;20502;-38
2022/02/09 07:51:27;;;;;;;6.28;2.95;;;;;;;8.06;47.24;100444.25;5111642;28;20487;-38
2022/02/09 07:54:02;;;;;;;7.68;3.05;;;;;;;7.76;48.06;100462.53;5111741;28;20111;-37
2022/02/09 07:56:32;;;;;;;5.32;2.80;;;;;;;7.83;48.25;100469.63;5111550;28;20024;-44
2022/02/09 07:58:58;;;;;;;4.70;2.78;;;;;;;8.31;47.06;100450.31;5109820;28;20095;-38
2022/02/09 08:01:23;;;;;;;5.32;2.80;;;;;;;8.33;47.31;100458.91;5110124;28;20161;-37
2022/02/09 08:03:50;;;;;;;9.25;3.40;;;;;;;8.34;47.62;100468.50;5111461;28;20035;-38
2022/02/09 08:06:17;;;;;;;8.05;3.00;;;;;;;8.44;47.68;100479.78;5111282;28;20097;-37
2022/02/09 08:08:44;;;;;;;7.63;3.40;;;;;;;8.44;48.06;100479.78;5111122;28;20050;-38
2022/02/09 08:30:03;;;;;;;6.28;2.90;;;;;;;9.69;48.32;100473.53;5110539;28;20062;-37
2022/02/09 08:34:58;;;;;;;7.85;2.88;;;;;;;9.61;48.15;100477.09;5110990;28;20054;-37
2022/02/09 08:37:24;;;;;;;5.63;2.40;;;;;;;9.29;49.20;100483.47;5111200;28;20028;-37
2022/02/09 08:39:50;;;;;;;5.53;2.80;;;;;;;9.66;48.44;100490.69;5111115;28;20129;-38
2022/02/09 08:42:16;;;;;;;3.97;2.40;;;;;;;9.32;48.92;100501.72;5110555;28;20015;-37
2022/02/09 08:44:42;;;;;;;4.53;2.40;;;;;;;9.56;48.47;100495.41;5108791;28;20024;-37
2022/02/09 08:47:07;;;;;;;4.00;2.50;;;;;;;9.69;48.23;100510.75;5110872;28;20031;-38
2022/02/09 08:49:33;;;;;;;5.15;2.72;;;;;;;9.51;48.79;100503.91;5108204;28;20016;-38
2022/02/09 08:51:59;;;;;;;6.45;2.55;;;;;;;9.78;48.28;100518.47;5109182;28;20322;-37
2022/02/09 08:54:25;;;;;;;4.80;2.88;;;;;;;9.95;47.70;100515.66;5111089;28;20024;-38
2022/02/09 08:56:53;;;;;;;6.45;3.10;;;;;;;9.72;48.53;100516.53;5109508;28;20506;-38
2022/02/09 08:59:23;;;;;;;4.55;2.55;;;;;;;9.56;49.28;100511.38;5109576;28;20110;-38
2022/02/09 09:01:54;;;;;;;4.20;2.67;;;;;;;9.84;49.06;100508.94;5110738;28;20133;-38
2022/02/09 09:04:24;;;;;;;3.75;2.40;;;;;;;10.22;48.16;100532.03;5110565;28;20035;-39
2022/02/09 09:06:56;;;;;;;7.03;2.80;;;;;;;9.64;49.19;100524.56;5109976;28;20112;-39
2022/02/09 10:03:57;;;;;;;3.78;2.30;;;;;;;12.27;43.81;100516.66;5093940;28;20108;-39
2022/02/09 10:32:34;;;;;;;6.13;2.20;;;;;;;11.51;45.09;100508.44;5111332;28;20514;-39
2022/02/09 10:34:20;;;;;;;3.90;2.58;;;;;;;11.72;43.95;100492.41;5107957;28;20409;-39
2022/02/09 10:36:51;;;;;;;4.07;2.00;;;;;;;11.19;45.14;100493.78;5113172;28;20085;-38
2022/02/09 10:39:22;;;;;;;4.47;2.50;;;;;;;11.42;44.85;100506.91;5113473;28;20076;-38
2022/02/09 10:41:55;;;;;;;3.28;2.13;;;;;;;11.53;44.22;100509.06;5112630;28;20034;-38
2022/02/09 10:44:24;;;;;;;3.35;2.17;;;;;;;11.72;44.19;100494.25;5112733;28;20486;-38
2022/02/09 10:46:53;;;;;;;4.28;2.50;;;;;;;11.87;44.66;100488.84;5113090;28;20088;-38
2022/02/09 10:49:21;;;;;;;3.60;2.20;;;;;;;12.04;44.17;100482.22;5112460;28;20565;-38
2022/02/09 10:51:54;;;;;;;4.75;2.50;;;;;;;11.99;43.31;100502.50;5112637;28;20019;-38
2022/02/09 10:54:25;;;;;;;3.88;2.22;;;;;;;12.13;43.33;100510.41;5111360;28;20189;-38
2022/02/09 10:56:58;;;;;;;5.95;3.10;;;;;;;12.27;42.18;100507.84;5111346;28;20019;-39
2022/02/09 10:59:28;;;;;;;4.07;2.47;;;;;;;12.04;42.79;100511.56;5112599;28;20092;-38
2022/02/09 11:01:54;;;;;;;;;;;;;;;11.97;43.47;100515.22;5113058;28;20106;-38
2022/02/09 11:04:19;;;;;;;4.05;2.17;;;;;;;11.72;43.86;100520.94;5112701;28;19964;-39
2022/02/09 11:06:49;;;;;;;5.18;2.60;;;;;;;11.58;43.97;100512.00;5112475;28;20410;-39
2022/02/09 11:09:17;;;;;;;8.45;2.53;;;;;;;11.75;44.58;100515.22;5112603;28;20023;-39
2022/02/09 11:11:42;;;;;;;4.43;2.10;;;;;;;11.80;43.80;100518.13;5112179;28;20027;-38
2022/02/09 11:14:14;;;;;;;3.05;2.20;;;;;;;12.04;43.54;100511.56;5111898;28;20027;-39
2022/02/09 11:16:45;;;;;;;3.67;2.40;;;;;;;12.24;42.42;100516.22;5112025;28;20030;-39
2022/02/09 11:19:11;;;;;;;4.97;2.50;;;;;;;12.61;42.33;100520.34;5111680;28;20049;-38
2022/02/09 11:21:38;;;;;;;3.45;2.20;;;;;;;12.68;42.11;100518.53;5110888;28;20028;-39
2022/02/09 11:24:21;;;;;;;7.25;2.50;;;;;;;12.50;42.98;100524.38;5112303;28;20032;-38
2022/02/09 11:27:32;;;;;;;6.20;2.50;;;;;;;12.61;42.77;100524.88;5112257;28;20031;-39
2022/02/09 11:32:35;;;;;;;4.68;2.30;;;;;;;12.57;41.91;100532.44;5110264;28;20028;-38
2022/02/09 11:35:24;;;;;;;4.07;2.35;;;;;;;12.49;42.91;100522.75;5110417;28;20509;-38
2022/02/09 11:38:11;;;;;;;3.65;2.30;;;;;;;12.50;42.35;100535.06;5110323;28;20110;-39
2022/02/09 11:43:19;;;;;;;3.53;2.40;;;;;;;12.86;42.16;100535.88;5111319;28;20127;-39
2022/02/09 11:46:07;;;;;;;3.80;2.40;;;;;;;12.62;43.21;100540.69;5111505;28;20478;-38
2022/02/09 11:57:42;;;;;;;6.13;2.38;;;;;;;12.83;42.75;100541.59;5111440;27;20396;-38
2022/02/09 12:11:16;;;;;;;3.20;2.13;;;;;;;12.25;43.93;100533.88;5111178;28;20104;-39
2022/02/09 12:14:02;;;;;;;3.53;2.60;;;;;;;12.16;43.41;100535.06;5111169;28;20471;-39
2022/02/09 12:16:37;;;;;;;4.78;2.90;;;;;;;11.94;44.59;100532.44;5110028;28;20034;-39
2022/02/09 12:19:06;;;;;;;5.35;2.90;;;;;;;11.71;44.26;100528.13;5111334;28;20032;-39
2022/02/09 12:21:56;;;;;;;4.63;2.80;;;;;;;11.58;45.05;100530.66;5111315;28;20036;-38
2022/02/09 12:24:27;;;;;;;5.05;2.60;;;;;;;11.72;45.29;100529.75;5110906;28;20518;-38
2022/02/09 12:26:54;;;;;;;4.13;2.30;;;;;;;11.60;45.20;100530.47;5111116;28;20020;-38
2022/02/09 12:29:19;;;;;;;3.15;2.20;;;;;;;11.92;44.28;100532.63;5111083;28;20059;-38
2022/02/09 12:31:45;;;;;;;4.50;2.58;;;;;;;11.78;45.24;100540.66;5110682;28;20043;-38
2022/02/09 12:34:10;;;;;;;3.28;2.60;;;;;;;11.79;44.48;100537.00;5109723;28;20027;-38
2022/02/09 12:36:36;;;;;;;3.80;2.50;;;;;;;11.86;43.60;100538.72;5092434;28;20042;-39
2022/02/09 12:39:05;;;;;;;4.07;2.40;;;;;;;11.58;45.38;100527.19;5110737;28;20140;-38
2022/02/09 12:41:31;;;;;;;5.15;2.70;;;;;;;11.88;44.00;100543.81;5111091;28;20027;-39
2022/02/09 12:44:02;;;;;;;4.55;2.70;;;;;;;11.55;44.50;100537.19;5110642;28;20028;-38
2022/02/09 12:46:29;;;;;;;4.40;2.88;;;;;;;12.12;42.89;100540.75;5115254;28;20025;-39
2022/02/09 12:48:55;;;;;;;4.22;2.90;;;;;;;11.98;43.60;100536.38;5114701;28;20023;-38
2022/02/09 12:51:28;;;;;;;4.53;2.58;;;;;;;11.81;43.54;100540.31;5114918;28;20475;-39
2022/02/09 12:53:53;;;;;;;3.97;2.35;;;;;;;11.77;43.65;100542.53;5115177;28;20032;-39
2022/02/09 12:56:35;;;;;;;5.63;2.17;;;;;;;11.55;44.63;100534.50;5114750;28;20024;-39
2022/02/09 12:59:22;;;;;;;4.47;2.70;;;;;;;11.39;44.80;100542.78;5114143;28;20034;-37
2022/02/09 13:01:52;;;;;;;4.38;2.30;;;;;;;11.55;44.20;100541.69;5113812;28;20070;-39
2022/02/09 13:04:27;;;;;;;5.55;2.40;;;;;;;11.51;44.83;100545.75;5114189;28;20466;-38
2022/02/09 13:06:52;;;;;;;4.88;2.25;;;;;;;11.15;45.65;100541.28;5114293;27;20604;-37
2022/02/09 13:09:18;;;;;;;3.90;2.55;;;;;;;11.12;45.29;100549.66;5114156;28;20024;-37
2022/02/09 13:11:43;;;;;;;4.22;2.50;;;;;;;11.24;45.42;100550.00;5114479;28;20039;-38
2022/02/09 13:14:16;;;;;;;3.97;2.40;;;;;;;11.34;44.74;100532.66;5114847;27;20208;-38
2022/02/09 13:22:41;;;;;;;3.38;2.20;;;;;;;11.17;46.20;100547.25;5079633;28;20037;-38
2022/02/09 14:12:21;;;;;;;5.10;3.20;;;;;;;10.93;48.20;100540.41;5113410;28;20133;-39
2022/02/09 14:54:29;;;;;;;5.10;3.20;;;;;;;10.85;49.03;100540.50;5112103;28;20051;-39
2022/02/09 14:57:12;;;;;;;8.18;3.90;;;;;;;10.76;49.22;100537.94;5112301;28;20321;-40
2022/02/09 15:02:15;;;;;;;5.93;3.50;;;;;;;10.43;50.24;100544.66;5112405;28;20039;-37
2022/02/09 15:10:03;;;;;;;;;;;;;;;10.30;50.82;100553.22;5112655;28;20058;-39
2022/02/09 15:12:34;;;;;;;8.57;4.57;;;;;;;10.41;50.54;100552.00;5112052;28;19911;-38
2022/02/09 15:15:12;;;;;;;10.68;4.82;;;;;;;10.37;50.98;100551.53;5111921;28;20062;-38
2022/02/09 15:21:26;;;;;;;6.90;4.00;;;;;;;10.35;51.71;100557.03;5066366;28;20067;-38
2022/02/09 15:23:24;;;;;;;10.23;3.97;;;;;;;10.39;51.25;100546.84;5101126;28;20057;-38
2022/02/09 15:25:50;;;;;;;11.68;4.35;;;;;;;10.50;51.15;100551.72;5112235;28;20429;-38
2022/02/09 15:28:15;;;;;;;7.80;4.97;;;;;;;10.42;51.14;100551.00;5112035;28;20506;-37
2022/02/09 15:30:54;;;;;;;6.28;4.35;;;;;;;10.13;51.90;100552.59;5110213;28;20518;-39
2022/02/09 15:33:25;;;;;;;10.23;4.30;;;;;;;10.17;51.43;100546.72;5112144;28;20016;-38
2022/02/09 15:35:56;;;;;;;6.88;4.75;;;;;;;10.14;51.90;100551.56;5111856;28;20058;-38
2022/02/09 15:38:27;;;;;;;10.18;5.05;;;;;;;10.17;51.84;100557.34;5111755;27;20030;-38
2022/02/09 15:41:22;;;;;;;11.27;5.50;;;;;;;10.15;52.02;100554.03;5111917;28;20076;-39
2022/02/09 15:56:13;;;;;;;12.52;6.47;;;;;;;10.09;52.35;100557.44;5111485;28;20110;-38
2022/02/09 15:58:19;;;;;;;8.98;4.85;;;;;;;9.26;55.14;100584.78;5110662;28;20034;-38
2022/02/09 16:06:16;;;;;;;8.55;4.40;;;;;;;9.37;55.16;100600.31;5110984;28;20113;-38
2022/02/09 16:09:09;;;;;;;7.50;4.53;;;;;;;9.25;55.34;100596.38;5110505;28;20046;-38
2022/02/09 16:22:36;;;;;;;9.40;5.57;;;;;;;9.30;55.75;100615.28;5091102;28;20115;-38
2022/02/09 16:25:18;;;;;;;9.50;5.30;;;;;;;9.08;56.02;100619.53;5091026;28;20044;-38
2022/02/09 16:33:20;;;;;;;8.98;5.13;;;;;;;9.07;56.26;100639.13;5110833;28;20034;-38
2022/02/09 16:46:57;;;;;;;12.68;6.22;;;;;;;8.76;57.90;100650.50;5105557;28;20050;-48
2022/02/09 16:49:30;;;;;;;10.10;5.30;;;;;;;8.93;57.28;100653.94;5108226;28;20453;-52
2022/02/09 16:52:04;;;;;;;11.57;5.90;;;;;;;8.56;58.67;100656.16;5110695;28;20084;-50
2022/02/09 16:54:42;;;;;;;8.45;5.50;;;;;;;8.34;59.30;100659.47;5101272;28;20024;-49
2022/02/09 17:08:23;;;;;;;8.15;5.80;;;;;;;8.19;59.96;100657.50;5090346;28;20031;-48
2022/02/09 17:21:11;;;;;;;11.15;6.88;;;;;;;8.54;59.07;100671.44;5110562;28;20142;-49
2022/02/09 17:23:36;;;;;;;12.95;6.22;;;;;;;8.31;59.42;100673.06;5110503;28;20088;-49
2022/02/09 17:26:02;;;;;;;10.43;6.63;;;;;;;8.22;59.33;100678.38;5110407;28;20031;-48
2022/02/09 17:28:28;;;;;;;11.43;5.90;;;;;;;8.18;59.82;100677.03;5110400;28;20098;-49
2022/02/09 17:31:07;;;;;;;8.93;6.15;;;;;;;8.42;59.17;100686.03;5095573;28;20052;-50
2022/02/09 17:34:03;;;;;;;13.95;6.78;;;;;;;8.14;59.79;100677.53;5093852;28;20024;-48
2022/02/09 17:39:06;;;;;;;11.77;7.13;;;;;;;8.56;58.44;100693.31;5093759;28;20528;-51
2022/02/09 17:55:29;;;;;;;23.17;12.40;;;;;;;8.46;59.26;100705.09;5103023;28;20030;-48
2022/02/09 17:58:02;;;;;;;11.20;6.82;;;;;;;7.83;61.07;100707.31;5113547;28;20023;-49
2022/02/09 18:00:29;;;;;;;14.02;7.78;;;;;;;7.87;61.22;100707.81;5110998;28;20103;-49
2022/02/09 18:02:55;;;;;;;18.33;11.30;;;;;;;7.71;61.59;100720.03;5097995;28;20362;-50
2022/02/09 18:07:59;;;;;;;11.73;7.00;;;;;;;7.74;61.90;100722.34;5112528;28;20146;-48
2022/02/09 18:15:52;;;;;;;10.95;6.90;;;;;;;7.90;61.48;100723.38;5092962;28;20024;-49
2022/02/09 18:31:40;;;;;;;12.50;7.00;;;;;;;7.79;61.57;100751.03;5113816;28;20027;-37
2022/02/09 18:45:08;;;;;;;10.43;6.90;;;;;;;7.92;61.59;100739.94;5113265;28;20091;-39
2022/02/09 19:04:12;;;;;;;10.25;6.97;;;;;;;7.15;64.34;100784.97;5096280;27;20494;-50
2022/02/09 19:17:29;;;;;;;11.25;7.18;;;;;;;6.97;64.66;100798.28;5088231;28;20044;-38
2022/02/09 19:30:54;;;;;;;12.57;7.78;;;;;;;7.12;63.63;100809.09;5112468;28;20059;-48
2022/02/09 19:49:12;;;;;;;8.88;5.93;;;;;;;7.03;64.27;100814.34;5111621;28;20024;-51
2022/02/09 19:56:36;;;;;;;9.50;6.38;;;;;;;7.56;62.35;100815.19;5092175;28;20024;-53
2022/02/09 19:59:09;;;;;;;8.98;5.78;;;;;;;7.32;63.35;100815.03;5103462;28;20031;-54
2022/02/09 20:01:36;;;;;;;8.82;6.18;;;;;;;7.16;63.22;100818.41;5107769;28;20531;-50
2022/02/09 20:04:06;;;;;;;8.07;6.45;;;;;;;7.19;63.81;100823.38;5111294;28;20030;-50
2022/02/09 20:06:31;;;;;;;9.60;6.20;;;;;;;6.94;63.95;100817.91;5109992;28;20098;-51
2022/02/09 20:08:56;;;;;;;9.07;6.57;;;;;;;7.63;62.17;100818.88;5110848;28;20022;-49
2022/02/09 20:11:22;;;;;;;10.32;6.75;;;;;;;7.61;61.75;100818.16;5111049;28;20494;-51
2022/02/09 20:13:50;;;;;;;9.00;6.43;;;;;;;7.18;63.13;100819.91;5111223;28;20043;-50
2022/02/09 20:16:19;;;;;;;11.00;6.88;;;;;;;7.00;63.47;100819.94;5108320;28;20015;-50
2022/02/09 20:18:45;;;;;;;11.25;7.60;;;;;;;7.20;63.33;100825.06;5110878;28;20055;-51
2022/02/09 20:21:10;;;;;;;27.70;16.17;;;;;;;7.10;63.65;100825.16;5110919;28;20717;-51
2022/02/09 20:23:36;;;;;;;12.82;8.40;;;;;;;6.77;64.30;100826.69;5111223;28;20511;-53
2022/02/09 20:26:06;;;;;;;12.20;7.50;;;;;;;7.15;63.54;100825.50;5109789;28;20030;-50
2022/02/09 20:28:32;;;;;;;9.95;6.63;;;;;;;7.38;61.98;100815.22;5110191;28;20027;-49
2022/02/09 20:31:03;;;;;;;10.57;7.05;;;;;;;7.18;62.36;100821.75;5110059;28;20047;-50
2022/02/09 20:33:35;;;;;;;9.65;6.38;;;;;;;7.12;63.00;100828.50;5110464;28;20028;-52
2022/02/09 20:36:03;;;;;;;9.55;6.30;;;;;;;6.92;63.82;100825.19;5108363;28;20028;-51
2022/02/09 20:38:29;;;;;;;11.20;6.55;;;;;;;6.75;63.69;100823.38;5109087;28;20034;-49
2022/02/09 20:40:59;;;;;;;8.70;5.72;;;;;;;6.78;63.77;100831.84;5107020;28;20110;-51
2022/02/09 20:43:25;;;;;;;11.13;6.47;;;;;;;7.00;63.77;100829.69;5109926;28;20042;-51
2022/02/09 20:45:54;;;;;;;9.50;6.30;;;;;;;7.46;61.62;100832.16;5109857;28;20050;-50
2022/02/09 20:48:27;;;;;;;8.65;5.97;;;;;;;7.32;62.08;100837.03;5109703;28;20553;-49
2022/02/09 20:50:57;;;;;;;9.25;6.55;;;;;;;7.35;61.63;100838.53;5110022;28;20099;-50
2022/02/09 20:53:23;;;;;;;11.23;6.50;;;;;;;7.42;61.17;100818.41;5109814;28;20030;-50
2022/02/09 20:55:48;;;;;;;12.23;7.40;;;;;;;7.24;61.86;100831.72;5108399;28;20023;-50
2022/02/09 20:58:14;;;;;;;14.55;9.30;;;;;;;7.32;61.49;100844.16;5122344;28;20031;-48
2022/02/09 21:01:17;;;;;;;9.32;6.80;;;;;;;7.34;61.40;100840.38;5109603;28;20095;-49
2022/02/09 21:06:15;;;;;;;13.95;8.77;;;;;;;7.30;62.18;100841.66;5111561;28;20015;-50
2022/02/09 21:20:15;;;;;;;9.30;6.57;;;;;;;6.94;62.75;100833.78;5113923;28;20023;-51
2022/02/09 21:54:18;;;;;;;10.02;5.60;;;;;;;7.33;62.31;100861.69;5112844;28;20076;-48
2022/02/09 22:21:31;;;;;;;8.80;5.47;;;;;;;6.87;62.25;100871.59;5111816;28;20528;-49
2022/02/09 22:32:18;;;;;;;8.75;5.90;;;;;;;6.99;61.22;100870.41;5112504;28;20115;-49
2022/02/09 22:48:33;;;;;;;8.90;5.72;;;;;;;7.01;60.88;100857.84;5112493;28;20061;-48
2022/02/09 22:50:45;;;;;;;7.22;4.95;;;;;;;6.91;61.43;100863.22;5110209;27;20108;-48
2022/02/09 22:55:54;;;;;;;7.22;5.15;;;;;;;6.86;60.67;100865.47;5112766;28;20484;-51
2022/02/09 22:58:19;;;;;;;7.57;5.20;;;;;;;6.88;61.30;100863.53;5112195;28;20399;-51
2022/02/09 23:03:23;;;;;;;9.40;5.53;;;;;;;6.80;61.58;100856.34;5112031;28;20023;-47
2022/02/09 23:06:06;;;;;;;7.07;5.25;;;;;;;6.65;62.16;100869.25;5112043;28;20022;-50
